様々な国から!!!!

LUXURY FLIGHT

080-7560-1817

羽田空港本店: 所在地: 東京都大田区羽田空港3-3-2    セントレア店: 所在地: 愛知県常滑市セントレア1-1      HICityファイター店: 所在地: 東京都大田区羽田空港1-1-4
           第1旅客ターミナル5階                  FLIGHT OF DREAMS FLIGHT PARK                 HANEDA INNOVATION CITY ZONE-J 2-5
      営業時間: 10:00~20:00 定休日: 年中無休         営業時間: 10:00~20:00 定休日: 年中無休             営業時間: 10:00~20:00 定休日: 年中無休
      電話番号: 080-7560-1817                  電話番号: 080-4945-5666                     電話番号: 03-5579-7980

lv

様々な国から!!!!

STAFF BLOG

2019/08/27 様々な国から!!!!

こんにちはーーーーーーーー

 

本日の羽田空港周辺のMETARは…

RJTT 270530Z 15008KT 120V190 9999 FEW035 BKN/// 28/22 Q1013 NOSIG

 

だいぶ涼しく感じます!!

 

 

さてさてさてさて、

本日は仲良し女性4人組のお客様

 

アジア周辺の国々から最高の笑顔を持った方々とフライトをさせていただきましたーーー

 

 

img_2789

 

 

中にはご来店2回目という方もいらっしゃいまして、

それはそれはスムーズな着陸でして

 

 

私が勉強させていただいたくらい、スムーズで繊細なコントロールを皆様お持ちでビックリ

さらには操縦しながらも景色をしっかりと楽しみながらの遊覧飛行となりました

 

また是非ともご一緒にフライトさせていただきたいでーす

 

 

この度はご来店誠にありがとうございました。

次回、さらにその次のご来店も心よりお待ちいたしております

 

「感謝」

 

TOP